sensor_id;sensor_type;location;lat;lon;timestamp;pressure;altitude;pressure_sealevel;temperature;humidity
76434;BME280;65265;53.200;6.080;2023-04-15T00:00:01;101107.19;;;5.63;92.90
76434;BME280;65265;53.200;6.080;2023-04-15T00:04:53;101105.94;;;5.56;93.08
76434;BME280;65265;53.200;6.080;2023-04-15T00:09:44;101100.38;;;5.49;93.93
76434;BME280;65265;53.200;6.080;2023-04-15T00:14:37;101099.31;;;5.45;93.82
76434;BME280;65265;53.200;6.080;2023-04-15T00:19:29;101095.19;;;5.47;94.94
76434;BME280;65265;53.200;6.080;2023-04-15T00:24:21;101094.13;;;5.44;94.61
76434;BME280;65265;53.200;6.080;2023-04-15T00:29:13;101093.44;;;5.46;94.99
76434;BME280;65265;53.200;6.080;2023-04-15T00:34:07;101099.19;;;5.44;94.96
76434;BME280;65265;53.200;6.080;2023-04-15T00:38:59;101106.72;;;5.42;95.54
76434;BME280;65265;53.200;6.080;2023-04-15T00:43:51;101109.75;;;5.37;95.50
76434;BME280;65265;53.200;6.080;2023-04-15T00:48:44;101118.22;;;5.37;96.03
76434;BME280;65265;53.200;6.080;2023-04-15T00:53:38;101112.97;;;5.34;95.84
76434;BME280;65265;53.200;6.080;2023-04-15T00:58:30;101116.66;;;5.26;96.51
76434;BME280;65265;53.200;6.080;2023-04-15T01:03:22;101116.75;;;5.28;96.60
76434;BME280;65265;53.200;6.080;2023-04-15T01:08:14;101116.28;;;5.20;96.92
76434;BME280;65265;53.200;6.080;2023-04-15T01:13:08;101114.88;;;5.12;97.66
76434;BME280;65265;53.200;6.080;2023-04-15T01:18:00;101122.31;;;5.09;98.13
76434;BME280;65265;53.200;6.080;2023-04-15T01:22:53;101119.34;;;5.03;97.84
76434;BME280;65265;53.200;6.080;2023-04-15T01:27:47;101118.97;;;4.97;98.30
76434;BME280;65265;53.200;6.080;2023-04-15T01:32:38;101129.09;;;4.97;98.66
76434;BME280;65265;53.200;6.080;2023-04-15T01:37:30;101115.72;;;4.87;98.85
76434;BME280;65265;53.200;6.080;2023-04-15T01:42:23;101126.75;;;4.87;98.65
76434;BME280;65265;53.200;6.080;2023-04-15T01:47:16;101138.03;;;4.92;99.75
76434;BME280;65265;53.200;6.080;2023-04-15T01:52:08;101137.06;;;4.90;99.19
76434;BME280;65265;53.200;6.080;2023-04-15T01:56:59;101136.88;;;4.87;99.56
76434;BME280;65265;53.200;6.080;2023-04-15T02:01:51;101133.75;;;4.91;99.98
76434;BME280;65265;53.200;6.080;2023-04-15T02:06:44;101132.16;;;4.80;100.00
76434;BME280;65265;53.200;6.080;2023-04-15T02:11:36;101136.25;;;4.78;100.00
76434;BME280;65265;53.200;6.080;2023-04-15T02:16:28;101142.69;;;4.73;99.81
76434;BME280;65265;53.200;6.080;2023-04-15T02:21:19;101146.09;;;4.74;99.72
76434;BME280;65265;53.200;6.080;2023-04-15T02:26:13;101148.72;;;4.75;100.00
76434;BME280;65265;53.200;6.080;2023-04-15T02:31:05;101148.53;;;4.72;100.00
76434;BME280;65265;53.200;6.080;2023-04-15T02:35:57;101155.28;;;4.60;99.90
76434;BME280;65265;53.200;6.080;2023-04-15T02:40:48;101154.31;;;4.58;100.00
76434;BME280;65265;53.200;6.080;2023-04-15T02:45:42;101169.81;;;4.63;100.00
76434;BME280;65265;53.200;6.080;2023-04-15T02:50:34;101175.53;;;4.60;100.00
76434;BME280;65265;53.200;6.080;2023-04-15T02:55:27;101180.59;;;4.60;100.00
76434;BME280;65265;53.200;6.080;2023-04-15T03:00:18;101180.22;;;4.55;100.00
76434;BME280;65265;53.200;6.080;2023-04-15T03:05:13;101184.28;;;4.53;100.00
76434;BME280;65265;53.200;6.080;2023-04-15T03:10:05;101194.00;;;4.47;100.00
76434;BME280;65265;53.200;6.080;2023-04-15T03:14:57;101195.34;;;4.42;100.00
76434;BME280;65265;53.200;6.080;2023-04-15T03:19:51;101199.44;;;4.40;100.00
76434;BME280;65265;53.200;6.080;2023-04-15T03:24:44;101205.81;;;4.35;100.00
76434;BME280;65265;53.200;6.080;2023-04-15T03:29:36;101207.16;;;4.30;100.00
76434;BME280;65265;53.200;6.080;2023-04-15T03:34:27;101209.44;;;4.27;100.00
76434;BME280;65265;53.200;6.080;2023-04-15T03:39:19;101216.25;;;4.28;100.00
76434;BME280;65265;53.200;6.080;2023-04-15T03:44:12;101217.94;;;4.27;100.00
76434;BME280;65265;53.200;6.080;2023-04-15T03:49:05;101222.03;;;4.14;100.00
76434;BME280;65265;53.200;6.080;2023-04-15T03:53:57;101216.53;;;4.08;100.00
76434;BME280;65265;53.200;6.080;2023-04-15T03:58:49;101232.59;;;4.08;100.00
76434;BME280;65265;53.200;6.080;2023-04-15T04:03:42;101238.34;;;4.06;100.00
76434;BME280;65265;53.200;6.080;2023-04-15T04:08:34;101241.06;;;4.09;100.00
76434;BME280;65265;53.200;6.080;2023-04-15T04:13:26;101247.00;;;4.21;100.00
76434;BME280;65265;53.200;6.080;2023-04-15T04:18:18;101253.38;;;4.16;100.00
76434;BME280;65265;53.200;6.080;2023-04-15T04:23:11;101250.19;;;4.30;100.00
76434;BME280;65265;53.200;6.080;2023-04-15T04:28:03;101258.84;;;4.33;100.00
76434;BME280;65265;53.200;6.080;2023-04-15T04:32:54;101263.69;;;4.42;100.00
76434;BME280;65265;53.200;6.080;2023-04-15T04:37:47;101263.38;;;4.37;100.00
76434;BME280;65265;53.200;6.080;2023-04-15T04:42:41;101263.13;;;4.46;100.00
76434;BME280;65265;53.200;6.080;2023-04-15T04:47:33;101267.22;;;4.44;100.00
76434;BME280;65265;53.200;6.080;2023-04-15T04:52:24;101269.63;;;4.42;100.00
76434;BME280;65265;53.200;6.080;2023-04-15T04:57:16;101283.25;;;4.44;100.00
76434;BME280;65265;53.200;6.080;2023-04-15T05:02:09;101271.28;;;4.42;100.00
76434;BME280;65265;53.200;6.080;2023-04-15T05:07:01;101272.69;;;4.50;100.00
76434;BME280;65265;53.200;6.080;2023-04-15T05:11:52;101295.69;;;4.64;100.00
76434;BME280;65265;53.200;6.080;2023-04-15T05:16:45;101292.34;;;4.76;100.00
76434;BME280;65265;53.200;6.080;2023-04-15T05:21:38;101299.81;;;4.86;100.00
76434;BME280;65265;53.200;6.080;2023-04-15T05:26:30;101298.13;;;4.98;100.00
76434;BME280;65265;53.200;6.080;2023-04-15T05:31:21;101307.72;;;5.15;100.00
76434;BME280;65265;53.200;6.080;2023-04-15T05:36:13;101311.78;;;5.25;100.00
76434;BME280;65265;53.200;6.080;2023-04-15T05:41:07;101310.63;;;5.33;100.00
76434;BME280;65265;53.200;6.080;2023-04-15T05:45:59;101319.56;;;5.39;100.00
76434;BME280;65265;53.200;6.080;2023-04-15T05:50:51;101319.59;;;5.52;100.00
76434;BME280;65265;53.200;6.080;2023-04-15T05:55:42;101319.81;;;5.68;100.00
76434;BME280;65265;53.200;6.080;2023-04-15T06:00:35;101327.91;;;5.87;100.00
76434;BME280;65265;53.200;6.080;2023-04-15T06:05:27;101336.50;;;6.02;100.00
76434;BME280;65265;53.200;6.080;2023-04-15T06:10:19;101336.81;;;6.20;100.00
76434;BME280;65265;53.200;6.080;2023-04-15T06:15:10;101349.91;;;6.39;100.00
76434;BME280;65265;53.200;6.080;2023-04-15T06:20:04;101361.34;;;6.58;100.00
76434;BME280;65265;53.200;6.080;2023-04-15T06:24:55;101367.41;;;6.73;99.88
76434;BME280;65265;53.200;6.080;2023-04-15T06:29:47;101372.47;;;6.86;99.50
76434;BME280;65265;53.200;6.080;2023-04-15T06:34:39;101375.47;;;6.94;99.35
76434;BME280;65265;53.200;6.080;2023-04-15T06:39:32;101376.13;;;7.04;98.73
76434;BME280;65265;53.200;6.080;2023-04-15T06:44:24;101386.19;;;7.15;98.70
76434;BME280;65265;53.200;6.080;2023-04-15T06:49:16;101404.84;;;7.29;98.89
76434;BME280;65265;53.200;6.080;2023-04-15T06:54:07;101394.13;;;7.47;98.94
76434;BME280;65265;53.200;6.080;2023-04-15T06:59:01;101402.31;;;7.71;97.34
76434;BME280;65265;53.200;6.080;2023-04-15T07:03:52;101405.97;;;7.89;96.24
76434;BME280;65265;53.200;6.080;2023-04-15T07:08:44;101414.84;;;8.10;95.98
76434;BME280;65265;53.200;6.080;2023-04-15T07:13:36;101415.59;;;8.22;93.36
76434;BME280;65265;53.200;6.080;2023-04-15T07:18:29;101414.28;;;8.43;92.95
76434;BME280;65265;53.200;6.080;2023-04-15T07:23:21;101426.81;;;8.69;92.76
76434;BME280;65265;53.200;6.080;2023-04-15T07:28:13;101432.09;;;8.72;91.46
76434;BME280;65265;53.200;6.080;2023-04-15T07:33:04;101443.06;;;8.71;89.80
76434;BME280;65265;53.200;6.080;2023-04-15T07:37:58;101439.66;;;8.70;87.19
76434;BME280;65265;53.200;6.080;2023-04-15T07:42:49;101443.81;;;8.68;84.93
76434;BME280;65265;53.200;6.080;2023-04-15T07:47:41;101446.34;;;8.68;86.63
76434;BME280;65265;53.200;6.080;2023-04-15T07:52:33;101441.75;;;8.77;85.12
76434;BME280;65265;53.200;6.080;2023-04-15T07:57:29;101449.56;;;8.95;84.53
76434;BME280;65265;53.200;6.080;2023-04-15T08:02:21;101451.06;;;9.22;85.03
76434;BME280;65265;53.200;6.080;2023-04-15T08:07:14;101458.88;;;9.25;81.44
76434;BME280;65265;53.200;6.080;2023-04-15T08:12:06;101456.34;;;9.25;81.43
76434;BME280;65265;53.200;6.080;2023-04-15T08:17:03;101456.38;;;9.41;81.20
76434;BME280;65265;53.200;6.080;2023-04-15T08:21:55;101464.84;;;9.55;81.20
76434;BME280;65265;53.200;6.080;2023-04-15T08:26:47;101462.75;;;9.48;79.83
76434;BME280;65265;53.200;6.080;2023-04-15T08:31:38;101465.28;;;9.33;81.95
76434;BME280;65265;53.200;6.080;2023-04-15T08:36:31;101479.16;;;9.38;82.57
76434;BME280;65265;53.200;6.080;2023-04-15T08:41:24;101469.59;;;9.03;82.75
76434;BME280;65265;53.200;6.080;2023-04-15T08:46:17;101488.00;;;8.98;82.24
76434;BME280;65265;53.200;6.080;2023-04-15T08:51:09;101486.94;;;8.94;84.29
76434;BME280;65265;53.200;6.080;2023-04-15T08:56:04;101502.94;;;8.92;82.64
76434;BME280;65265;53.200;6.080;2023-04-15T09:00:57;101506.03;;;8.86;84.28
76434;BME280;65265;53.200;6.080;2023-04-15T09:05:49;101517.81;;;8.99;83.80
76434;BME280;65265;53.200;6.080;2023-04-15T09:10:41;101514.22;;;8.81;82.69
76434;BME280;65265;53.200;6.080;2023-04-15T09:15:35;101522.00;;;9.13;83.52
76434;BME280;65265;53.200;6.080;2023-04-15T09:20:29;101532.59;;;9.04;79.75
76434;BME280;65265;53.200;6.080;2023-04-15T09:25:25;101532.31;;;9.00;81.60
76434;BME280;65265;53.200;6.080;2023-04-15T09:30:17;101542.91;;;9.36;79.97
76434;BME280;65265;53.200;6.080;2023-04-15T09:35:13;101550.41;;;9.63;77.27
76434;BME280;65265;53.200;6.080;2023-04-15T09:40:06;101544.47;;;9.95;76.55
76434;BME280;65265;53.200;6.080;2023-04-15T09:45:07;101529.59;;;10.18;76.40
76434;BME280;65265;53.200;6.080;2023-04-15T09:49:59;101542.66;;;10.24;74.50
76434;BME280;65265;53.200;6.080;2023-04-15T09:54:54;101544.78;;;10.82;74.35
76434;BME280;65265;53.200;6.080;2023-04-15T09:59:46;101557.75;;;10.04;74.08
76434;BME280;65265;53.200;6.080;2023-04-15T10:04:40;101560.66;;;9.79;75.38
76434;BME280;65265;53.200;6.080;2023-04-15T10:09:31;101559.69;;;9.93;74.63
76434;BME280;65265;53.200;6.080;2023-04-15T10:14:25;101556.78;;;9.71;76.81
76434;BME280;65265;53.200;6.080;2023-04-15T10:19:21;101566.53;;;9.62;76.68
76434;BME280;65265;53.200;6.080;2023-04-15T10:24:16;101578.91;;;9.41;78.22
76434;BME280;65265;53.200;6.080;2023-04-15T10:29:08;101568.56;;;9.53;78.04
76434;BME280;65265;53.200;6.080;2023-04-15T10:34:02;101577.22;;;9.41;76.69
76434;BME280;65265;53.200;6.080;2023-04-15T10:38:55;101584.03;;;9.41;77.34
76434;BME280;65265;53.200;6.080;2023-04-15T10:43:51;101590.78;;;9.40;77.94
76434;BME280;65265;53.200;6.080;2023-04-15T10:48:46;101589.91;;;9.40;77.32
76434;BME280;65265;53.200;6.080;2023-04-15T10:53:46;101590.09;;;9.73;78.16
76434;BME280;65265;53.200;6.080;2023-04-15T10:58:41;101592.91;;;9.77;75.96
76434;BME280;65265;53.200;6.080;2023-04-15T11:03:36;101596.94;;;9.74;76.21
76434;BME280;65265;53.200;6.080;2023-04-15T11:08:59;101604.81;;;9.93;76.78
76434;BME280;65265;53.200;6.080;2023-04-15T11:13:55;101603.81;;;9.75;79.77
76434;BME280;65265;53.200;6.080;2023-04-15T11:18:54;101606.97;;;9.85;79.44
76434;BME280;65265;53.200;6.080;2023-04-15T11:23:45;101616.97;;;9.66;78.75
76434;BME280;65265;53.200;6.080;2023-04-15T11:28:40;101621.78;;;9.76;79.39
76434;BME280;65265;53.200;6.080;2023-04-15T11:33:31;101624.97;;;9.28;81.17
76434;BME280;65265;53.200;6.080;2023-04-15T11:38:23;101618.06;;;9.41;82.03
76434;BME280;65265;53.200;6.080;2023-04-15T11:43:16;101638.75;;;9.45;81.63
76434;BME280;65265;53.200;6.080;2023-04-15T11:48:12;101629.00;;;9.24;77.63
76434;BME280;65265;53.200;6.080;2023-04-15T11:53:04;101652.94;;;9.26;78.32
76434;BME280;65265;53.200;6.080;2023-04-15T11:58:08;101649.97;;;9.19;78.35
76434;BME280;65265;53.200;6.080;2023-04-15T12:03:21;101657.59;;;9.47;78.18
76434;BME280;65265;53.200;6.080;2023-04-15T12:08:13;101658.22;;;9.88;77.76
76434;BME280;65265;53.200;6.080;2023-04-15T12:13:05;101661.47;;;9.86;78.52
76434;BME280;65265;53.200;6.080;2023-04-15T12:17:58;101669.81;;;9.98;77.63
76434;BME280;65265;53.200;6.080;2023-04-15T12:22:51;101672.38;;;9.38;77.88
76434;BME280;65265;53.200;6.080;2023-04-15T12:27:49;101672.03;;;9.33;79.03
76434;BME280;65265;53.200;6.080;2023-04-15T12:32:41;101683.56;;;9.26;78.35
76434;BME280;65265;53.200;6.080;2023-04-15T12:37:33;101692.63;;;9.21;79.14
76434;BME280;65265;53.200;6.080;2023-04-15T12:42:26;101695.28;;;9.51;78.66
76434;BME280;65265;53.200;6.080;2023-04-15T12:47:17;101705.13;;;9.45;79.82
76434;BME280;65265;53.200;6.080;2023-04-15T12:52:10;101706.34;;;9.66;78.54
76434;BME280;65265;53.200;6.080;2023-04-15T12:57:01;101698.97;;;9.56;78.78
76434;BME280;65265;53.200;6.080;2023-04-15T13:01:55;101701.63;;;9.43;79.51
76434;BME280;65265;53.200;6.080;2023-04-15T13:06:47;101707.34;;;9.40;80.21
76434;BME280;65265;53.200;6.080;2023-04-15T13:11:39;101712.78;;;9.45;79.94
76434;BME280;65265;53.200;6.080;2023-04-15T13:16:31;101714.44;;;9.59;79.30
76434;BME280;65265;53.200;6.080;2023-04-15T13:21:25;101722.22;;;9.61;78.69
76434;BME280;65265;53.200;6.080;2023-04-15T13:26:17;101723.44;;;9.53;78.54
76434;BME280;65265;53.200;6.080;2023-04-15T13:31:09;101733.16;;;9.02;80.89
76434;BME280;65265;53.200;6.080;2023-04-15T13:36:01;101721.94;;;9.42;81.50
76434;BME280;65265;53.200;6.080;2023-04-15T13:40:54;101729.41;;;9.82;79.15
76434;BME280;65265;53.200;6.080;2023-04-15T13:45:47;101739.44;;;9.79;78.15
76434;BME280;65265;53.200;6.080;2023-04-15T13:50:38;101743.50;;;9.90;78.71
76434;BME280;65265;53.200;6.080;2023-04-15T13:55:34;101741.41;;;9.83;77.59
76434;BME280;65265;53.200;6.080;2023-04-15T14:00:29;101755.31;;;9.88;77.19
76434;BME280;65265;53.200;6.080;2023-04-15T14:05:21;101760.78;;;9.51;77.71
76434;BME280;65265;53.200;6.080;2023-04-15T14:10:12;101772.75;;;9.52;79.06
76434;BME280;65265;53.200;6.080;2023-04-15T14:15:05;101772.94;;;9.41;79.17
76434;BME280;65265;53.200;6.080;2023-04-15T14:19:58;101775.47;;;9.41;80.57
76434;BME280;65265;53.200;6.080;2023-04-15T14:24:50;101785.16;;;9.60;79.78
76434;BME280;65265;53.200;6.080;2023-04-15T14:29:44;101779.41;;;9.36;80.33
76434;BME280;65265;53.200;6.080;2023-04-15T14:34:36;101789.72;;;9.37;79.89
76434;BME280;65265;53.200;6.080;2023-04-15T14:39:29;101810.44;;;9.42;81.22
76434;BME280;65265;53.200;6.080;2023-04-15T14:44:21;101795.97;;;9.42;82.56
76434;BME280;65265;53.200;6.080;2023-04-15T14:49:13;101808.66;;;9.41;81.67
76434;BME280;65265;53.200;6.080;2023-04-15T14:54:05;101804.81;;;9.47;81.87
76434;BME280;65265;53.200;6.080;2023-04-15T14:58:58;101813.78;;;9.55;82.42
76434;BME280;65265;53.200;6.080;2023-04-15T15:03:50;101829.81;;;9.52;82.33
76434;BME280;65265;53.200;6.080;2023-04-15T15:08:42;101820.09;;;9.33;82.43
76434;BME280;65265;53.200;6.080;2023-04-15T15:13:34;101829.72;;;9.24;83.75
76434;BME280;65265;53.200;6.080;2023-04-15T15:18:27;101827.81;;;9.20;84.12
76434;BME280;65265;53.200;6.080;2023-04-15T15:23:19;101837.56;;;9.27;84.53
76434;BME280;65265;53.200;6.080;2023-04-15T15:28:11;101841.03;;;9.27;83.26
76434;BME280;65265;53.200;6.080;2023-04-15T15:33:02;101839.88;;;9.22;83.38
76434;BME280;65265;53.200;6.080;2023-04-15T15:37:56;101843.81;;;9.17;83.98
76434;BME280;65265;53.200;6.080;2023-04-15T15:42:48;101849.56;;;9.00;84.58
76434;BME280;65265;53.200;6.080;2023-04-15T15:47:40;101855.53;;;9.01;85.32
76434;BME280;65265;53.200;6.080;2023-04-15T15:52:32;101857.91;;;8.98;85.01
76434;BME280;65265;53.200;6.080;2023-04-15T15:57:25;101865.16;;;8.92;85.09
76434;BME280;65265;53.200;6.080;2023-04-15T16:02:17;101869.19;;;8.88;85.27
76434;BME280;65265;53.200;6.080;2023-04-15T16:07:10;101873.22;;;8.85;85.31
76434;BME280;65265;53.200;6.080;2023-04-15T16:12:03;101879.31;;;8.87;85.00
76434;BME280;65265;53.200;6.080;2023-04-15T16:16:57;101885.28;;;8.74;85.86
76434;BME280;65265;53.200;6.080;2023-04-15T16:21:48;101878.44;;;8.73;86.12
76434;BME280;65265;53.200;6.080;2023-04-15T16:26:40;101876.56;;;8.71;86.14
76434;BME280;65265;53.200;6.080;2023-04-15T16:31:33;101872.66;;;8.63;85.67
76434;BME280;65265;53.200;6.080;2023-04-15T16:36:28;101885.78;;;8.69;86.06
76434;BME280;65265;53.200;6.080;2023-04-15T16:41:20;101892.06;;;8.61;86.14
76434;BME280;65265;53.200;6.080;2023-04-15T16:46:12;101887.56;;;8.57;86.61
76434;BME280;65265;53.200;6.080;2023-04-15T16:51:04;101907.78;;;8.54;87.36
76434;BME280;65265;53.200;6.080;2023-04-15T16:55:57;101915.41;;;8.54;86.88
76434;BME280;65265;53.200;6.080;2023-04-15T17:00:49;101917.47;;;8.46;87.90
76434;BME280;65265;53.200;6.080;2023-04-15T17:05:41;101919.91;;;8.45;87.74
76434;BME280;65265;53.200;6.080;2023-04-15T17:10:32;101924.03;;;8.43;88.08
76434;BME280;65265;53.200;6.080;2023-04-15T17:15:26;101922.66;;;8.35;88.92
76434;BME280;65265;53.200;6.080;2023-04-15T17:20:18;101935.03;;;8.42;88.33
76434;BME280;65265;53.200;6.080;2023-04-15T17:25:12;101934.41;;;8.33;88.63
76434;BME280;65265;53.200;6.080;2023-04-15T17:30:03;101940.78;;;8.26;88.95
76434;BME280;65265;53.200;6.080;2023-04-15T17:34:57;101946.00;;;8.28;88.79
76434;BME280;65265;53.200;6.080;2023-04-15T17:39:48;101947.34;;;8.23;88.67
76434;BME280;65265;53.200;6.080;2023-04-15T17:44:41;101948.53;;;8.28;88.66
76434;BME280;65265;53.200;6.080;2023-04-15T17:49:33;101953.09;;;8.20;89.27
76434;BME280;65265;53.200;6.080;2023-04-15T17:54:28;101951.22;;;8.18;89.81
76434;BME280;65265;53.200;6.080;2023-04-15T17:59:19;101947.22;;;8.21;89.88
76434;BME280;65265;53.200;6.080;2023-04-15T18:04:11;101965.75;;;8.19;90.16
76434;BME280;65265;53.200;6.080;2023-04-15T18:09:03;101971.72;;;8.19;90.28
76434;BME280;65265;53.200;6.080;2023-04-15T18:13:56;101980.34;;;8.21;90.69
76434;BME280;65265;53.200;6.080;2023-04-15T18:18:48;101992.00;;;8.18;91.20
76434;BME280;65265;53.200;6.080;2023-04-15T18:23:41;101991.75;;;8.15;91.60
76434;BME280;65265;53.200;6.080;2023-04-15T18:28:34;102000.97;;;8.13;91.40
76434;BME280;65265;53.200;6.080;2023-04-15T18:33:28;102005.09;;;8.11;93.06
76434;BME280;65265;53.200;6.080;2023-04-15T18:38:20;101998.09;;;8.08;92.38
76434;BME280;65265;53.200;6.080;2023-04-15T18:43:12;102019.38;;;8.09;93.13
76434;BME280;65265;53.200;6.080;2023-04-15T18:48:04;102031.34;;;8.10;93.63
76434;BME280;65265;53.200;6.080;2023-04-15T18:52:57;102038.00;;;8.08;94.56
76434;BME280;65265;53.200;6.080;2023-04-15T18:57:50;102041.53;;;8.10;95.05
76434;BME280;65265;53.200;6.080;2023-04-15T19:02:41;102038.00;;;8.08;95.50
76434;BME280;65265;53.200;6.080;2023-04-15T19:07:34;102040.44;;;8.06;95.51
76434;BME280;65265;53.200;6.080;2023-04-15T19:12:27;102038.00;;;8.08;95.71
76434;BME280;65265;53.200;6.080;2023-04-15T19:17:19;102035.13;;;8.03;96.02
76434;BME280;65265;53.200;6.080;2023-04-15T19:22:11;102041.41;;;8.08;96.34
76434;BME280;65265;53.200;6.080;2023-04-15T19:27:03;102032.78;;;8.06;97.57
76434;BME280;65265;53.200;6.080;2023-04-15T19:31:56;102036.25;;;8.07;97.51
76434;BME280;65265;53.200;6.080;2023-04-15T19:36:48;102038.78;;;8.07;97.89
76434;BME280;65265;53.200;6.080;2023-04-15T19:41:40;102044.88;;;8.09;98.00
76434;BME280;65265;53.200;6.080;2023-04-15T19:46:33;102055.06;;;8.09;98.98
76434;BME280;65265;53.200;6.080;2023-04-15T19:51:27;102064.47;;;8.10;99.22
76434;BME280;65265;53.200;6.080;2023-04-15T19:56:18;102065.78;;;8.05;99.87
76434;BME280;65265;53.200;6.080;2023-04-15T20:01:10;102069.44;;;8.08;100.00
76434;BME280;65265;53.200;6.080;2023-04-15T20:06:02;102063.69;;;8.11;100.00
76434;BME280;65265;53.200;6.080;2023-04-15T20:10:55;102072.00;;;8.08;100.00
76434;BME280;65265;53.200;6.080;2023-04-15T20:15:47;102063.69;;;8.11;100.00
76434;BME280;65265;53.200;6.080;2023-04-15T20:20:39;102070.75;;;8.15;100.00
76434;BME280;65265;53.200;6.080;2023-04-15T20:25:30;102072.50;;;8.16;100.00
76434;BME280;65265;53.200;6.080;2023-04-15T20:30:24;102072.78;;;8.19;100.00
76434;BME280;65265;53.200;6.080;2023-04-15T20:35:15;102078.72;;;8.19;100.00
76434;BME280;65265;53.200;6.080;2023-04-15T20:40:09;102080.28;;;8.17;100.00
76434;BME280;65265;53.200;6.080;2023-04-15T20:45:01;102079.41;;;8.17;100.00
76434;BME280;65265;53.200;6.080;2023-04-15T20:49:54;102078.19;;;8.12;100.00
76434;BME280;65265;53.200;6.080;2023-04-15T20:54:46;102070.34;;;8.09;100.00
76434;BME280;65265;53.200;6.080;2023-04-15T20:59:37;102087.16;;;8.18;100.00
76434;BME280;65265;53.200;6.080;2023-04-15T21:04:29;102081.41;;;8.09;100.00
76434;BME280;65265;53.200;6.080;2023-04-15T21:09:23;102095.78;;;8.20;100.00
76434;BME280;65265;53.200;6.080;2023-04-15T21:14:15;102103.19;;;8.17;100.00
76434;BME280;65265;53.200;6.080;2023-04-15T21:19:08;102103.09;;;8.16;100.00
76434;BME280;65265;53.200;6.080;2023-04-15T21:24:00;102103.19;;;8.17;100.00
76434;BME280;65265;53.200;6.080;2023-04-15T21:28:53;102105.53;;;8.14;100.00
76434;BME280;65265;53.200;6.080;2023-04-15T21:33:45;102103.88;;;8.15;100.00
76434;BME280;65265;53.200;6.080;2023-04-15T21:38:37;102102.22;;;8.15;100.00
76434;BME280;65265;53.200;6.080;2023-04-15T21:43:29;102105.75;;;8.17;100.00
76434;BME280;65265;53.200;6.080;2023-04-15T21:48:23;102103.09;;;8.16;100.00
76434;BME280;65265;53.200;6.080;2023-04-15T21:53:14;102102.66;;;8.21;100.00
76434;BME280;65265;53.200;6.080;2023-04-15T21:58:06;102108.53;;;8.20;100.00
76434;BME280;65265;53.200;6.080;2023-04-15T22:02:58;102118.63;;;8.19;100.00
76434;BME280;65265;53.200;6.080;2023-04-15T22:07:51;102127.03;;;8.18;100.00
76434;BME280;65265;53.200;6.080;2023-04-15T22:12:43;102142.56;;;8.21;100.00
76434;BME280;65265;53.200;6.080;2023-04-15T22:17:35;102143.34;;;8.20;100.00
76434;BME280;65265;53.200;6.080;2023-04-15T22:22:26;102141.78;;;8.22;100.00
76434;BME280;65265;53.200;6.080;2023-04-15T22:27:20;102142.56;;;8.21;100.00
76434;BME280;65265;53.200;6.080;2023-04-15T22:32:11;102158.06;;;8.24;100.00
76434;BME280;65265;53.200;6.080;2023-04-15T22:37:03;102132.13;;;8.18;100.00
76434;BME280;65265;53.200;6.080;2023-04-15T22:41:55;102140.56;;;8.17;100.00
76434;BME280;65265;53.200;6.080;2023-04-15T22:46:51;102152.16;;;8.25;100.00
76434;BME280;65265;53.200;6.080;2023-04-15T22:51:43;102158.06;;;8.24;100.00
76434;BME280;65265;53.200;6.080;2023-04-15T22:56:34;102159.47;;;8.32;100.00
76434;BME280;65265;53.200;6.080;2023-04-15T23:01:26;102163.34;;;8.27;100.00
76434;BME280;65265;53.200;6.080;2023-04-15T23:06:19;102154.28;;;8.07;100.00
76434;BME280;65265;53.200;6.080;2023-04-15T23:11:11;102175.09;;;8.25;100.00
76434;BME280;65265;53.200;6.080;2023-04-15T23:16:03;102180.78;;;8.21;100.00
76434;BME280;65265;53.200;6.080;2023-04-15T23:20:55;102177.44;;;8.22;100.00
76434;BME280;65265;53.200;6.080;2023-04-15T23:25:49;102182.19;;;8.17;100.00
76434;BME280;65265;53.200;6.080;2023-04-15T23:30:40;102188.97;;;8.17;100.00
76434;BME280;65265;53.200;6.080;2023-04-15T23:35:32;102180.66;;;8.08;100.00
76434;BME280;65265;53.200;6.080;2023-04-15T23:40:24;102190.94;;;8.09;100.00
76434;BME280;65265;53.200;6.080;2023-04-15T23:45:17;102194.50;;;8.11;100.00
76434;BME280;65265;53.200;6.080;2023-04-15T23:50:09;102201.25;;;8.11;100.00
76434;BME280;65265;53.200;6.080;2023-04-15T23:55:01;102204.59;;;8.10;100.00
76434;BME280;65265;53.200;6.080;2023-04-15T23:59:53;102207.91;;;8.09;100.00
